Latest Weather Observations for Palmerville

IDQ60801

Issued at 7:06 pm EST Saturday 28 March 2015 (issued every 30 minutes, with the page automatically refreshed every 10 minutes)

About weather observations | Map of weather stations | Latest weather observations for QLD | Other Formats
Station Details ID: 028004 Name: PALMERVILLE Lat: -16.00 Lon: 144.08 Height: 203.8 m
Data from the previous 72 hours. | See also: Recent months at Palmerville
Date/Time
EST
Temp
°C
App
Temp
°C
Dew
Point
Rel
Hum
%
Delta-T
°C
Wind Press
QNH
hPa
Press
MSL
hPa
Rain
since 9 am
mm
Dir
 
Spd
km/h
Gust
km/h
Spd
kts
Gust
kts
28/07:00pm 28.6 26.9 12.5 37 9.5 NNE 13 17 7 9 1013.5 1012.1 0.0
28/06:30pm 29.7 27.8 13.0 35 10.0 NNE 15 24 8 13 1013.1 1011.7 0.0
28/06:00pm 30.8 30.3 14.8 37 9.9 NNE 11 19 6 10 1012.3 1011.0 0.0
28/05:30pm 31.7 29.9 14.4 35 10.6 NNE 17 26 9 14 1011.9 1010.6 0.0
28/05:00pm 32.8 31.2 14.9 34 11.1 NNE 17 26 9 14 1011.3 1010.0 0.0
28/04:30pm 33.8 32.5 14.8 32 11.8 NNE 15 20 8 11 1011.1 1009.8 0.0
28/04:00pm 34.3 33.6 13.2 28 12.9 NE 9 19 5 10 1011.1 1009.8 0.0
28/03:30pm 34.8 33.7 13.0 26 13.3 N 11 20 6 11 1011.3 1010.0 0.0
28/03:00pm 35.0 34.3 14.3 29 12.9 N 11 19 6 10 1011.4 1010.1 0.0
28/02:30pm 34.5 34.2 15.4 32 12.0 NE 11 19 6 10 1011.7 1010.4 0.0
28/02:00pm 34.1 33.3 15.1 32 11.9 NNE 13 24 7 13 1012.2 1010.9 0.0
28/01:30pm 33.2 33.2 15.2 33 11.3 NE 9 24 5 13 1012.5 1011.2 0.0
28/01:00pm 34.0 33.9 15.9 33 11.5 E 11 24 6 13 1013.2 1011.8 0.0
28/12:30pm 33.4 33.4 17.1 37 10.5 ESE 13 22 7 12 1013.8 1012.4 0.0
28/12:00pm 32.6 33.0 17.2 39 9.9 ENE 11 17 6 9 1014.4 1013.0 0.0
28/11:30am 32.4 32.4 17.1 40 9.8 E 13 24 7 13 1015.0 1013.6 0.0
28/11:00am 31.6 32.0 18.2 44 8.7 ESE 13 22 7 12 1015.5 1014.2 0.0
28/10:30am 30.5 31.9 18.6 49 7.7 ESE 9 15 5 8 1016.0 1014.7 0.0
28/10:00am 29.7 30.8 18.8 52 7.1 SSE 11 19 6 10 1016.1 1014.8 0.0
28/09:30am 28.4 29.9 18.8 56 6.2 S 9 20 5 11 1016.3 1015.0 0.0
28/09:00am 26.8 29.5 19.4 64 4.8 NNW 4 9 2 5 1016.3 1015.0 0.0
28/08:00am 23.7 26.7 18.4 72 3.4 CALM 0 0 0 0 1015.9 1014.6 0.0
28/07:30am 21.8 24.8 18.4 81 2.1 CALM 0 0 0 0 1015.5 1014.2 0.0
28/07:00am 20.2 22.6 18.7 91 0.9 E 4 7 2 4 1015.3 1014.0 0.0
28/06:30am 19.9 22.7 18.0 89 1.2 CALM 0 6 0 3 1015.0 1013.6 0.0
28/06:00am 20.3 22.1 18.4 89 1.2 ENE 6 7 3 4 1014.8 1013.4 0.0
28/05:30am 20.5 22.3 18.8 90 1.1 ENE 7 9 4 5 1014.5 1013.1 0.0
28/05:00am 20.3 22.2 19.0 92 0.8 E 7 11 4 6 1014.1 1012.7 0.0
28/04:30am 20.1 23.5 19.3 95 0.5 CALM 0 0 0 0 1014.1 1012.7 0.0
28/04:00am 19.9 23.1 18.9 94 0.6 CALM 0 0 0 0 1014.0 1012.6 0.0
28/03:30am 20.1 23.3 18.9 93 0.8 CALM 0 0 0 0 1013.8 1012.4 0.0
28/03:00am 20.5 23.8 19.2 92 0.8 CALM 0 0 0 0 1014.0 1012.6 0.0
28/02:30am 20.5 23.6 18.6 89 1.2 CALM 0 0 0 0 1014.1 1012.7 0.0
28/02:00am 20.9 24.1 18.8 88 1.3 CALM 0 0 0 0 1014.2 1012.8 0.0
28/01:30am 21.1 24.1 18.5 85 1.6 CALM 0 0 0 0 1014.5 1013.1 0.0
28/01:00am 21.7 24.4 17.7 78 2.5 CALM 0 0 0 0 1014.7 1013.3 0.0
28/12:30am 22.3 25.1 17.9 76 2.8 CALM 0 0 0 0 1014.9 1013.5 0.0
 
Date/Time
EST
Temp
°C
App
Temp
°C
Dew
Point
Rel
Hum
%
Delta-T
°C
Wind Press
QNH
hPa
Press
MSL
hPa
Rain
since 9 am
mm
Dir
 
Spd
km/h
Gust
km/h
Spd
kts
Gust
kts
27/11:30pm 23.7 25.4 18.1 71 3.5 ESE 6 7 3 4 1015.2 1013.9 0.0
27/11:00pm 23.9 25.7 18.3 71 3.6 NE 6 7 3 4 1015.3 1014.0 0.0
27/10:30pm 24.6 26.1 18.1 67 4.1 E 7 9 4 5 1015.5 1014.2 0.0
27/10:00pm 25.1 26.7 17.8 64 4.6 E 6 9 3 5 1015.5 1014.2 0.0
27/09:30pm 25.8 28.3 18.2 63 4.8 ENE 2 9 1 5 1015.4 1014.1 0.0
27/09:00pm 26.5 28.0 18.1 60 5.4 ENE 7 9 4 5 1015.3 1014.0 0.0
27/08:30pm 26.8 28.0 17.3 56 6.0 ENE 7 11 4 6 1015.1 1013.7 0.0
27/08:00pm 26.9 27.8 16.5 53 6.5 NE 7 11 4 6 1014.5 1013.1 0.0
27/07:30pm 28.1 28.5 16.4 49 7.3 NE 9 19 5 10 1014.0 1012.6 0.0
27/07:00pm 28.8 29.1 17.0 49 7.5 NE 11 17 6 9 1013.6 1012.2 0.0
27/06:30pm 29.6 30.9 18.4 51 7.2 NE 9 15 5 8 1012.9 1011.6 0.0
27/06:00pm 30.2 30.8 17.6 46 8.1 NE 11 19 6 10 1012.5 1011.2 0.0
27/05:30pm 31.2 31.3 17.5 44 8.8 NNE 13 24 7 13 1012.2 1010.9 0.0
27/05:00pm 31.7 32.1 17.2 42 9.3 NNE 11 15 6 8 1012.1 1010.8 0.0
27/04:30pm 33.0 34.1 17.2 39 10.2 NNE 7 13 4 7 1011.9 1010.6 0.0
27/04:00pm 32.6 33.6 16.8 38 10.1 NE 7 11 4 6 1012.0 1010.7 0.0
27/03:30pm 32.7 33.0 16.1 37 10.5 ENE 9 15 5 8 1012.1 1010.8 0.0
27/03:00pm 33.4 32.7 15.4 34 11.3 NNE 13 20 7 11 1012.2 1010.9 0.0
27/02:30pm 34.1 33.8 15.5 32 11.7 ENE 11 20 6 11 1012.3 1011.0 0.0
27/02:00pm 33.9 33.2 15.4 33 11.6 NE 13 20 7 11 1012.8 1011.5 0.0
27/01:30pm 35.0 35.2 16.8 34 11.7 E 11 20 6 11 1013.3 1011.9 0.0
27/01:00pm 33.9 33.2 16.3 35 11.2 E 15 24 8 13 1013.8 1012.4 0.0
27/12:30pm 33.5 34.1 17.6 38 10.3 NE 11 20 6 11 1014.4 1013.0 0.0
27/12:00pm 32.1 32.7 16.8 40 9.8 E 9 15 5 8 1015.0 1013.6 0.0
27/11:30am 31.9 32.7 18.1 43 9.0 SE 11 19 6 10 1015.5 1014.2 0.0
27/11:00am 31.1 32.2 18.1 46 8.4 E 9 15 5 8 1015.9 1014.6 0.0
27/10:30am 30.1 31.4 18.5 49 7.5 ENE 9 17 5 9 1016.3 1015.0 0.0
27/10:00am 28.7 29.9 18.2 53 6.8 NE 9 15 5 8 1016.4 1015.1 0.0
27/09:30am 28.0 29.5 18.1 55 6.3 ENE 7 11 4 6 1016.5 1015.2 0.0
27/09:00am 26.5 29.4 19.1 64 4.8 N 2 7 1 4 1016.4 1015.1 0.0
27/08:30am 24.8 27.2 18.7 69 3.9 E 4 7 2 4 1016.4 1015.1 0.0
27/08:00am 23.2 24.8 19.1 78 2.6 E 9 11 5 6 1016.1 1014.8 0.0
27/07:30am 21.4 23.6 19.5 89 1.2 E 7 11 4 6 1015.9 1014.6 0.0
27/07:00am 19.2 21.3 19.0 99 0.1 ESE 6 7 3 4 1015.9 1014.6 0.0
27/06:30am 18.9 21.7 18.9 100 0.0 NE 2 6 1 3 1015.6 1014.3 0.0
27/06:00am 18.9 21.9 18.4 97 0.3 CALM 0 0 0 0 1015.6 1014.3 0.0
27/05:30am 19.0 21.9 18.2 95 0.5 CALM 0 0 0 0 1015.4 1014.1 0.0
27/05:00am 18.9 20.7 17.4 91 0.9 SSE 4 6 2 3 1015.0 1013.6 0.0
27/04:30am 19.5 22.4 18.2 92 0.8 CALM 0 0 0 0 1014.8 1013.4 0.0
27/04:00am 19.6 22.3 17.7 89 1.2 CALM 0 0 0 0 1014.7 1013.3 0.0
27/03:30am 20.2 22.0 18.3 89 1.2 E 6 7 3 4 1014.7 1013.3 0.0
27/03:00am 20.2 23.0 18.0 87 1.4 CALM 0 0 0 0 1014.8 1013.4 0.0
27/02:30am 20.8 23.8 18.4 86 1.5 CALM 0 0 0 0 1015.0 1013.6 0.0
27/02:00am 21.2 23.7 17.2 78 2.5 CALM 0 6 0 3 1015.2 1013.9 0.0
27/01:30am 22.3 23.5 17.4 74 3.0 E 7 9 4 5 1015.4 1014.1 0.0
27/01:00am 22.6 24.0 17.7 74 3.1 E 7 9 4 5 1015.7 1014.4 0.0
27/12:30am 22.5 24.2 18.1 76 2.8 E 6 9 3 5 1016.1 1014.8 0.0
27/12:00am 22.7 25.3 17.6 73 3.2 CALM 0 7 0 4 1016.4 1015.1 0.0
 
Date/Time
EST
Temp
°C
App
Temp
°C
Dew
Point
Rel
Hum
%
Delta-T
°C
Wind Press
QNH
hPa
Press
MSL
hPa
Rain
since 9 am
mm
Dir
 
Spd
km/h
Gust
km/h
Spd
kts
Gust
kts
26/11:30pm 23.7 26.9 18.8 74 3.1 CALM 0 0 0 0 1016.5 1015.2 0.0
26/11:00pm 24.0 26.6 17.5 67 4.1 CALM 0 0 0 0 1016.5 1015.2 0.0
26/10:30pm 25.1 26.9 17.3 62 4.9 NE 4 7 2 4 1016.6 1015.3 0.0
26/10:00pm 26.2 27.7 16.7 56 5.9 NNE 4 9 2 5 1016.4 1015.1 0.0
26/09:30pm 27.0 27.1 16.6 53 6.5 NNE 11 15 6 8 1015.8 1014.5 0.0
26/09:00pm 27.2 27.8 16.8 53 6.5 NNE 9 13 5 7 1015.3 1014.0 0.0
26/08:30pm 28.3 28.6 16.9 50 7.2 NNE 11 17 6 9 1014.9 1013.5 0.0
26/08:00pm 28.6 28.4 16.8 48 7.4 NE 13 26 7 14 1014.4 1013.0 0.0
26/07:30pm 29.2 29.2 17.1 48 7.7 NE 13 24 7 13 1013.9 1012.5 0.0
26/07:00pm 30.1 29.3 17.2 46 8.2 NNE 17 22 9 12 1013.2 1011.8 0.0
26/06:30pm 30.6 30.6 18.0 47 8.1 NE 15 24 8 13 1012.6 1011.3 0.0
26/06:00pm 31.3 31.8 18.3 46 8.4 NNE 13 19 7 10 1012.4 1011.1 0.0
26/05:30pm 32.4 33.0 18.6 44 9.0 NNE 13 20 7 11 1012.1 1010.8 0.0
26/05:00pm 33.5 34.6 19.6 44 9.3 NNE 13 20 7 11 1011.8 1010.5 0.0
26/04:30pm 33.5 34.9 19.6 44 9.2 N 11 19 6 10 1011.7 1010.4 0.0
26/04:00pm 34.8 36.3 17.5 35 11.2 NNW 6 11 3 6 1011.6 1010.3 0.0
26/03:30pm 34.1 35.7 18.2 39 10.4 NW 7 11 4 6 1011.7 1010.4 0.0
26/03:00pm 33.7 35.6 18.6 40 9.9 NNW 6 11 3 6 1011.9 1010.6 0.0
26/02:30pm 33.2 35.3 18.9 42 9.4 WNW 6 9 3 5 1012.3 1011.0 0.0
26/02:00pm 34.2 36.2 18.7 40 10.2 NNE 6 11 3 6 1012.7 1011.4 0.0
26/01:30pm 33.2 35.3 19.3 44 9.2 W 7 13 4 7 1013.3 1011.9 0.0
26/01:00pm 34.0 35.9 18.9 41 10.0 NE 7 17 4 9 1013.9 1012.5 0.0
26/12:30pm 32.6 34.9 19.8 46 8.5 WNW 7 11 4 6 1014.5 1013.1 0.0
26/12:00pm 33.2 36.1 21.0 48 8.3 ESE 7 15 4 8 1015.0 1013.6 0.0
26/11:30am 32.2 34.3 20.1 48 8.1 ENE 9 15 5 8 1015.6 1014.3 0.0
26/11:00am 31.3 33.9 21.2 55 6.8 NE 9 15 5 8 1016.2 1014.9 0.0
26/10:30am 30.1 32.9 20.9 57 6.2 E 7 13 4 7 1016.4 1015.1 0.0
26/10:00am 29.0 31.6 21.2 62 5.2 E 9 13 5 7 1016.4 1015.1 0.0
26/09:30am 28.8 32.6 21.6 65 4.9 ESE 4 11 2 6 1016.6 1015.3 0.0
26/09:00am 27.8 30.3 21.1 67 4.5 E 9 15 5 8 1016.6 1015.3 0.0
26/08:30am 26.8 30.3 21.1 71 3.8 NE 4 9 2 5 1016.4 1015.1 0.0
26/08:00am 25.5 29.5 21.4 78 2.7 ENE 2 7 1 4 1016.2 1014.9 0.0
26/07:30am 24.1 29.0 22.4 90 1.1 CALM 0 6 0 3 1016.0 1014.7 0.0
26/07:00am 23.3 28.3 22.5 95 0.5 CALM 0 0 0 0 1015.6 1014.3 0.0
26/06:30am 22.9 27.7 22.2 96 0.5 CALM 0 0 0 0 1015.4 1014.1 0.0
26/06:00am 22.7 27.4 21.9 95 0.5 CALM 0 0 0 0 1015.2 1013.9 0.0
26/05:30am 22.9 27.4 21.5 92 0.9 CALM 0 0 0 0 1015.0 1013.6 0.0
26/05:00am 23.3 27.9 21.7 91 1.1 CALM 0 0 0 0 1015.0 1013.6 0.0
26/04:30am 23.2 26.9 21.5 90 1.1 SW 4 9 2 5 1015.0 1013.6 0.0
26/04:00am 22.9 27.3 21.4 91 1.0 CALM 0 0 0 0 1014.8 1013.4 0.0
26/03:30am 22.8 27.0 20.9 89 1.2 CALM 0 0 0 0 1014.5 1013.1 0.0
26/03:00am 23.3 27.0 21.4 89 1.3 NE 4 6 2 3 1014.5 1013.1 0.0
26/02:30am 23.6 28.0 21.3 87 1.5 CALM 0 0 0 0 1014.7 1013.3 0.0
26/02:00am 23.6 27.7 20.7 84 1.9 CALM 0 0 0 0 1014.8 1013.4 0.0
26/01:30am 24.1 27.2 21.0 83 2.0 NNE 6 7 3 4 1015.1 1013.7 0.0
26/01:00am 24.6 27.4 20.9 80 2.4 N 7 11 4 6 1015.3 1014.0 0.0
26/12:30am 25.1 27.6 21.0 78 2.7 N 9 15 5 8 1015.8 1014.5 0.0
26/12:00am 25.5 28.1 21.2 77 2.9 N 9 13 5 7 1015.8 1014.5 0.0
 
Date/Time
EST
Temp
°C
App
Temp
°C
Dew
Point
Rel
Hum
%
Delta-T
°C
Wind Press
QNH
hPa
Press
MSL
hPa
Rain
since 9 am
mm
Dir
 
Spd
km/h
Gust
km/h
Spd
kts
Gust
kts
25/11:30pm 25.8 29.1 21.5 77 2.9 N 6 9 3 5 1015.9 1014.6 0.0
25/11:00pm 26.3 29.4 21.5 75 3.2 N 7 11 4 6 1015.7 1014.4 0.0
25/10:30pm 27.0 29.8 21.5 72 3.7 N 9 15 5 8 1015.3 1014.0 0.0
25/10:00pm 27.5 30.3 20.8 67 4.5 N 7 11 4 6 1015.3 1014.0 0.0
25/09:30pm 27.5 29.9 20.1 64 4.9 N 7 11 4 6 1015.1 1013.7 0.0
25/09:00pm 27.0 30.1 20.3 66 4.4 N 4 7 2 4 1014.8 1013.4 0.0
25/08:30pm 27.3 30.2 19.9 64 4.9 N 4 7 2 4 1014.4 1013.0 0.0
25/08:00pm 28.3 31.3 20.1 61 5.4 NNE 4 7 2 4 1014.1 1012.7 0.0
25/07:30pm 29.3 32.4 20.2 58 6.0 NNW 4 7 2 4 1013.6 1012.2 0.0

Other Formats:

Comma delimited format used in spreadsheet applications
http://www.bom.gov.au/fwo/IDQ60801/IDQ60801.94276.axf

JavaScript Object Notation format (JSON) in row-major order
http://www.bom.gov.au/fwo/IDQ60801/IDQ60801.94276.json